Time;durP1;ratioP1;P1;durP2;ratioP2;P2;SDS_P1;SDS_P2;PMS_P1;PMS_P2;Temp;Humidity;BMP_temperature;BMP_pressure;BME280_temperature;BME280_humidity;BME280_pressure;Samples;Min_cycle;Max_cycle;Signal;HPM_P1;HPM_P2
2021/12/12 00:01:19;;;;;;;48.13;22.70;;;4.50;99.90;;;;;;5117686;27;20767;-80
2021/12/12 00:03:49;;;;;;;37.38;20.58;;;4.50;99.90;;;;;;5120018;27;20915;-79
2021/12/12 00:06:22;;;;;;;35.25;22.88;;;4.50;99.90;;;;;;5140390;27;20045;-80
2021/12/12 00:08:53;;;;;;;42.78;22.80;;;4.60;99.90;;;;;;5136839;27;20068;-80
2021/12/12 00:11:21;;;;;;;36.10;21.33;;;4.60;99.90;;;;;;5137886;27;20051;-80
2021/12/12 00:13:55;;;;;;;36.10;21.80;;;4.60;99.90;;;;;;5118472;27;20099;-79
2021/12/12 00:16:20;;;;;;;30.83;20.02;;;4.60;99.90;;;;;;5121619;27;20046;-80
2021/12/12 00:18:46;;;;;;;38.75;21.63;;;4.60;99.90;;;;;;5118753;27;20042;-80
2021/12/12 00:21:15;;;;;;;40.38;23.38;;;4.60;99.90;;;;;;5119441;27;20731;-78
2021/12/12 00:23:40;;;;;;;39.15;21.08;;;4.60;99.90;;;;;;5138577;27;20042;-78
2021/12/12 00:26:06;;;;;;;43.03;23.73;;;4.60;99.90;;;;;;5118566;27;20046;-80
2021/12/12 00:28:32;;;;;;;42.22;22.50;;;4.60;99.90;;;;;;5138024;27;20050;-80
2021/12/12 00:31:08;;;;;;;32.72;20.40;;;4.60;99.90;;;;;;5119235;27;20130;-80
2021/12/12 00:33:35;;;;;;;33.67;20.17;;;4.60;99.90;;;;;;5137663;27;20053;-80
2021/12/12 00:36:02;;;;;;;38.33;22.33;;;4.60;99.90;;;;;;5138751;27;20043;-79
2021/12/12 00:38:30;;;;;;;37.10;22.42;;;4.60;99.90;;;;;;5138554;27;20499;-80
2021/12/12 00:41:00;;;;;;;32.15;21.05;;;4.60;99.90;;;;;;5131778;27;20038;-80
2021/12/12 00:43:34;;;;;;;32.63;21.83;;;4.60;99.90;;;;;;5159884;27;20065;-80
2021/12/12 00:46:04;;;;;;;36.20;23.90;;;4.60;99.90;;;;;;5159992;27;20054;-80
2021/12/12 00:48:30;;;;;;;37.38;22.67;;;4.70;99.90;;;;;;5159866;27;20046;-80
2021/12/12 00:50:59;;;;;;;38.83;22.90;;;4.70;99.90;;;;;;5141633;27;20054;-80
2021/12/12 00:53:25;;;;;;;34.60;20.83;;;4.70;99.90;;;;;;5141962;27;20043;-80
2021/12/12 00:55:54;;;;;;;38.28;20.52;;;4.70;99.90;;;;;;5160307;27;20679;-80
2021/12/12 00:58:20;;;;;;;43.47;21.63;;;4.60;99.90;;;;;;5160516;27;20039;-80
2021/12/12 01:00:54;;;;;;;34.70;19.80;;;4.70;99.90;;;;;;5138114;27;20061;-80
2021/12/12 01:03:27;;;;;;;43.53;22.45;;;4.70;99.90;;;;;;5126315;27;20474;-80
2021/12/12 01:05:54;;;;;;;35.17;20.73;;;4.70;99.90;;;;;;5144591;27;20034;-80
2021/12/12 01:08:21;;;;;;;35.38;20.40;;;4.70;99.90;;;;;;5137911;27;20050;-80
2021/12/12 01:10:51;;;;;;;32.03;20.35;;;4.70;99.90;;;;;;5138259;27;20095;-80
2021/12/12 01:13:17;;;;;;;37.42;21.17;;;4.70;99.90;;;;;;5139796;27;20161;-80
2021/12/12 01:15:51;;;;;;;34.70;20.75;;;4.70;99.90;;;;;;5137398;27;20837;-80
2021/12/12 01:18:21;;;;;;;35.30;21.42;;;4.70;99.90;;;;;;5137826;27;20049;-80
2021/12/12 01:20:57;;;;;;;39.38;21.40;;;4.70;99.90;;;;;;5114902;27;20055;-80
2021/12/12 01:23:40;;;;;;;33.97;19.92;;;4.70;99.90;;;;;;5097913;28;20854;-80
2021/12/12 01:26:07;;;;;;;35.67;20.77;;;4.80;99.90;;;;;;5097834;28;20695;-80
2021/12/12 01:28:36;;;;;;;33.28;19.85;;;4.70;99.90;;;;;;5097720;28;20158;-80
2021/12/12 01:31:08;;;;;;;30.25;20.77;;;4.80;99.90;;;;;;5096718;28;20487;-79
2021/12/12 01:33:36;;;;;;;34.33;18.67;;;4.80;99.90;;;;;;5098451;28;20043;-79
2021/12/12 01:36:06;;;;;;;35.60;21.55;;;4.70;99.90;;;;;;5095677;28;20060;-79
2021/12/12 01:38:53;;;;;;;32.75;19.17;;;4.70;99.90;;;;;;5115113;28;20069;-79
2021/12/12 01:41:33;;;;;;;32.60;19.77;;;4.70;99.90;;;;;;5132416;27;20076;-79
2021/12/12 01:44:10;;;;;;;33.63;19.23;;;4.80;99.90;;;;;;5139050;27;20054;-79
2021/12/12 01:46:43;;;;;;;30.50;18.45;;;4.70;99.90;;;;;;5138046;27;20047;-79
2021/12/12 01:49:17;;;;;;;26.80;17.95;;;4.70;99.90;;;;;;5138273;27;20054;-78
2021/12/12 01:51:45;;;;;;;37.65;18.80;;;4.80;99.90;;;;;;5140039;27;20047;-77
2021/12/12 01:54:12;;;;;;;37.78;19.58;;;4.80;99.90;;;;;;5142144;27;20038;-76
2021/12/12 01:56:43;;;;;;;36.58;20.52;;;4.80;99.90;;;;;;5142566;27;20047;-74
2021/12/12 01:59:12;;;;;;;33.72;20.80;;;4.80;99.90;;;;;;5143320;27;20891;-73
2021/12/12 02:01:47;;;;;;;34.05;21.58;;;4.80;99.90;;;;;;5142264;27;20046;-74
2021/12/12 02:04:19;;;;;;;33.67;18.30;;;4.80;99.90;;;;;;5113955;27;20050;-76
2021/12/12 02:06:47;;;;;;;33.75;19.90;;;4.80;99.90;;;;;;5133245;27;20074;-75
2021/12/12 02:09:14;;;;;;;28.05;19.55;;;4.80;99.90;;;;;;5137030;27;20428;-76
2021/12/12 02:11:43;;;;;;;34.78;19.50;;;4.80;99.90;;;;;;5142348;27;20047;-80
2021/12/12 02:14:12;;;;;;;43.17;19.98;;;4.80;99.90;;;;;;5144109;27;20824;-82
2021/12/12 02:16:42;;;;;;;31.92;20.10;;;4.80;99.90;;;;;;5141253;27;20093;-83
2021/12/12 02:19:09;;;;;;;32.00;19.00;;;4.80;99.90;;;;;;5144480;27;20053;-79
2021/12/12 02:21:55;;;;;;;29.15;19.50;;;4.80;99.90;;;;;;5144558;27;20066;-78
2021/12/12 02:35:25;;;;;;;27.42;18.67;;;4.80;99.90;;;;;;5144488;27;20097;-77
2021/12/12 02:37:55;;;;;;;31.48;19.05;;;4.80;99.90;;;;;;5139176;27;20509;-76
2021/12/12 02:40:25;;;;;;;31.15;17.73;;;4.80;99.90;;;;;;5129535;27;20055;-77
2021/12/12 02:42:52;;;;;;;27.67;18.02;;;4.80;99.90;;;;;;5112876;27;20053;-77
2021/12/12 02:45:20;;;;;;;43.75;20.42;;;4.80;99.90;;;;;;5142580;27;20132;-76
2021/12/12 02:47:58;;;;;;;26.77;17.88;;;4.80;99.90;;;;;;5156938;27;20141;-77
2021/12/12 02:50:36;;;;;;;27.77;16.90;;;4.80;99.90;;;;;;5124781;27;20043;-76
2021/12/12 02:53:15;;;;;;;33.42;16.88;;;4.90;99.90;;;;;;5126622;27;20130;-77
2021/12/12 02:55:46;;;;;;;28.05;16.58;;;4.90;99.90;;;;;;5122642;27;20508;-77
2021/12/12 02:58:15;;;;;;;29.25;17.98;;;4.90;99.90;;;;;;5142354;27;20054;-77
2021/12/12 03:00:47;;;;;;;33.53;17.13;;;4.90;99.90;;;;;;5141646;27;20410;-77
2021/12/12 03:03:14;;;;;;;27.42;16.73;;;4.90;99.90;;;;;;5141453;27;20133;-77
2021/12/12 03:05:43;;;;;;;28.38;18.63;;;4.90;99.90;;;;;;5145928;27;20042;-77
2021/12/12 03:08:11;;;;;;;25.63;15.90;;;4.90;99.90;;;;;;5143399;27;20145;-78
2021/12/12 03:10:40;;;;;;;36.40;17.80;;;5.00;99.90;;;;;;5122078;27;20063;-78
2021/12/12 03:13:07;;;;;;;29.80;17.67;;;4.90;99.90;;;;;;5121138;27;20051;-77
2021/12/12 03:15:38;;;;;;;24.67;15.57;;;4.90;99.90;;;;;;5120777;27;20076;-78
2021/12/12 03:18:06;;;;;;;24.35;15.30;;;4.90;99.90;;;;;;5121642;27;20883;-79
2021/12/12 03:20:37;;;;;;;26.52;16.98;;;5.00;99.90;;;;;;5108273;27;20058;-79
2021/12/12 03:23:16;;;;;;;26.58;14.70;;;5.00;99.90;;;;;;5143776;27;20046;-80
2021/12/12 03:25:43;;;;;;;25.25;15.90;;;5.00;99.90;;;;;;5155975;27;20074;-80
2021/12/12 03:28:13;;;;;;;30.40;16.73;;;5.00;99.90;;;;;;5121608;27;20148;-80
2021/12/12 03:30:41;;;;;;;26.75;16.63;;;5.00;99.90;;;;;;5102243;27;20062;-80
2021/12/12 03:33:08;;;;;;;21.88;14.80;;;5.00;99.90;;;;;;5120987;27;20047;-79
2021/12/12 03:35:34;;;;;;;25.35;15.90;;;5.10;99.90;;;;;;5120955;27;20043;-78
2021/12/12 03:38:00;;;;;;;23.15;14.18;;;5.10;99.90;;;;;;5102614;27;20051;-78
2021/12/12 03:40:32;;;;;;;23.23;14.35;;;5.10;99.90;;;;;;5120941;27;20406;-77
2021/12/12 03:43:00;;;;;;;25.33;14.18;;;5.10;99.90;;;;;;5120887;27;20154;-75
2021/12/12 03:45:28;;;;;;;26.17;14.30;;;5.10;99.90;;;;;;5121071;27;20130;-76
2021/12/12 03:48:19;;;;;;;21.40;12.57;;;5.10;99.90;;;;;;5102761;27;20096;-76
2021/12/12 03:50:47;;;;;;;23.50;13.00;;;5.10;99.90;;;;;;5101602;27;20051;-76
2021/12/12 03:53:14;;;;;;;21.08;12.68;;;5.20;99.90;;;;;;5120667;27;20047;-77
2021/12/12 03:55:41;;;;;;;22.65;12.75;;;5.20;99.90;;;;;;5126894;27;20050;-77
2021/12/12 03:58:08;;;;;;;23.00;12.15;;;5.20;99.90;;;;;;5119928;27;20054;-77
2021/12/12 04:00:46;;;;;;;22.52;12.40;;;5.30;99.90;;;;;;5122256;27;20061;-76
2021/12/12 04:03:14;;;;;;;18.77;13.70;;;5.30;99.90;;;;;;5141251;27;20057;-77
2021/12/12 04:06:04;;;;;;;21.85;11.93;;;5.30;99.90;;;;;;5121475;27;20055;-77
2021/12/12 04:08:35;;;;;;;15.75;11.25;;;5.30;99.90;;;;;;5121518;27;20122;-77
2021/12/12 04:11:02;;;;;;;18.02;11.63;;;5.30;99.90;;;;;;5121737;27;20055;-76
2021/12/12 04:13:28;;;;;;;21.95;12.55;;;5.40;99.90;;;;;;5140039;27;20402;-76
2021/12/12 04:15:55;;;;;;;14.98;11.38;;;5.40;99.90;;;;;;5140540;27;20043;-77
2021/12/12 04:18:24;;;;;;;17.67;11.20;;;5.40;99.90;;;;;;5140783;27;20046;-76
2021/12/12 04:20:49;;;;;;;14.93;10.27;;;5.40;99.90;;;;;;5127811;27;20046;-76
2021/12/12 04:23:18;;;;;;;21.27;10.90;;;5.40;99.90;;;;;;5161906;27;20483;-76
2021/12/12 04:25:43;;;;;;;17.45;11.05;;;5.40;99.90;;;;;;5160838;27;20046;-76
2021/12/12 04:28:09;;;;;;;16.38;9.77;;;5.50;99.90;;;;;;5161562;27;20053;-76
2021/12/12 04:30:35;;;;;;;12.43;9.43;;;5.40;99.90;;;;;;5122887;27;20050;-76
2021/12/12 04:33:01;;;;;;;12.77;8.73;;;5.50;99.90;;;;;;5119171;27;20054;-76
2021/12/12 04:35:28;;;;;;;14.90;9.85;;;5.50;99.90;;;;;;5119435;27;20051;-78
2021/12/12 04:37:56;;;;;;;12.88;9.43;;;5.50;99.90;;;;;;5100525;27;20058;-77
2021/12/12 04:40:25;;;;;;;14.23;10.10;;;5.50;99.90;;;;;;5118611;27;20502;-77
2021/12/12 04:42:52;;;;;;;14.25;8.75;;;5.60;99.90;;;;;;5119201;27;20043;-77
2021/12/12 04:45:42;;;;;;;12.50;7.05;;;5.60;99.90;;;;;;5119638;27;20395;-77
2021/12/12 04:51:22;;;;;;;13.20;8.38;;;5.60;99.90;;;;;;5119680;27;20055;-76
2021/12/12 04:53:51;;;;;;;10.70;8.20;;;5.60;99.90;;;;;;5139626;27;20537;-76
2021/12/12 04:56:28;;;;;;;17.98;8.45;;;5.60;99.90;;;;;;5120903;27;20138;-76
2021/12/12 04:59:08;;;;;;;18.17;8.65;;;5.60;99.90;;;;;;5139666;27;20047;-76
2021/12/12 05:01:37;;;;;;;10.88;8.15;;;5.60;99.90;;;;;;5120393;27;20046;-76
2021/12/12 05:04:18;;;;;;;11.52;8.02;;;5.60;99.90;;;;;;5140373;27;20055;-76
2021/12/12 05:06:49;;;;;;;9.52;7.55;;;5.60;99.90;;;;;;5121260;27;20128;-76
2021/12/12 05:09:24;;;;;;;9.38;7.43;;;5.60;99.90;;;;;;5120932;27;20051;-76
2021/12/12 05:12:27;;;;;;;9.85;7.32;;;5.60;99.90;;;;;;5121246;27;20072;-77
2021/12/12 05:15:00;;;;;;;10.82;7.28;;;5.60;99.90;;;;;;5139415;27;20103;-76
2021/12/12 05:17:33;;;;;;;10.65;7.25;;;5.60;99.90;;;;;;5139481;27;20082;-76
2021/12/12 05:20:02;;;;;;;9.75;6.65;;;5.60;99.90;;;;;;5121516;27;20737;-76
2021/12/12 05:22:34;;;;;;;8.38;7.13;;;5.60;99.90;;;;;;5125392;27;20047;-76
2021/12/12 05:25:04;;;;;;;7.57;5.20;;;5.70;99.90;;;;;;5160765;27;20085;-77
2021/12/12 05:27:32;;;;;;;8.90;6.38;;;5.70;99.90;;;;;;5146101;27;20069;-77
2021/12/12 05:30:09;;;;;;;11.70;6.68;;;5.70;99.90;;;;;;5164088;27;20596;-77
2021/12/12 05:32:35;;;;;;;8.23;5.72;;;5.70;99.90;;;;;;5146096;27;20149;-78
2021/12/12 05:35:02;;;;;;;10.10;6.70;;;5.70;99.90;;;;;;5146221;27;20046;-76
2021/12/12 05:37:28;;;;;;;6.10;5.50;;;5.70;99.90;;;;;;5164752;27;20142;-77
2021/12/12 05:40:00;;;;;;;7.22;5.55;;;5.70;99.90;;;;;;5164849;27;20054;-77
2021/12/12 05:42:27;;;;;;;8.77;5.67;;;5.70;99.90;;;;;;5145705;27;20514;-77
2021/12/12 05:44:54;;;;;;;8.90;6.63;;;5.70;99.90;;;;;;5146600;27;20046;-78
2021/12/12 05:47:20;;;;;;;8.27;7.22;;;5.70;99.90;;;;;;5145295;27;20921;-78
2021/12/12 05:49:46;;;;;;;8.00;6.07;;;5.70;99.90;;;;;;5130980;27;20139;-79
2021/12/12 05:52:17;;;;;;;7.47;5.57;;;5.80;99.90;;;;;;5123379;27;20039;-80
2021/12/12 05:54:46;;;;;;;6.50;5.50;;;5.80;99.90;;;;;;5123040;27;20109;-79
2021/12/12 05:57:13;;;;;;;9.50;6.70;;;5.80;99.90;;;;;;5136372;27;20042;-79
2021/12/12 05:59:39;;;;;;;7.53;6.30;;;5.80;99.90;;;;;;5142761;27;20149;-79
2021/12/12 06:02:06;;;;;;;7.80;6.07;;;5.80;99.90;;;;;;5142244;27;20054;-80
2021/12/12 06:04:34;;;;;;;7.60;6.07;;;5.80;99.90;;;;;;5141519;27;20383;-80
2021/12/12 06:07:04;;;;;;;5.85;5.35;;;5.80;99.90;;;;;;5142025;27;20039;-79
2021/12/12 06:09:31;;;;;;;8.07;6.05;;;5.80;99.90;;;;;;5123605;27;20086;-80
2021/12/12 06:11:58;;;;;;;12.75;6.85;;;5.90;99.90;;;;;;5129344;27;20055;-81
2021/12/12 06:14:24;;;;;;;7.68;6.20;;;5.90;99.90;;;;;;5102353;27;20058;-80
2021/12/12 06:16:50;;;;;;;7.72;6.03;;;5.90;99.90;;;;;;5121208;27;20039;-80
2021/12/12 06:19:24;;;;;;;7.88;6.43;;;5.90;99.90;;;;;;5120830;27;20069;-79
2021/12/12 06:21:56;;;;;;;6.68;5.95;;;5.90;99.90;;;;;;5129923;27;20150;-79
2021/12/12 06:24:25;;;;;;;6.90;5.72;;;5.90;99.90;;;;;;5162290;27;20555;-80
2021/12/12 06:26:51;;;;;;;8.00;5.78;;;5.90;99.90;;;;;;5162118;27;20045;-79
2021/12/12 06:29:18;;;;;;;6.70;6.10;;;6.00;99.90;;;;;;5147377;27;20137;-78
2021/12/12 06:31:46;;;;;;;6.25;5.15;;;6.00;99.90;;;;;;5141119;27;20046;-80
2021/12/12 06:34:14;;;;;;;5.57;5.10;;;6.00;99.90;;;;;;5142053;27;20051;-78
2021/12/12 06:36:40;;;;;;;5.47;4.68;;;6.00;99.90;;;;;;5141811;27;20084;-79
2021/12/12 06:39:09;;;;;;;5.25;4.68;;;6.00;99.90;;;;;;5140618;27;20042;-80
2021/12/12 06:41:35;;;;;;;5.95;4.80;;;6.00;99.90;;;;;;5141492;27;20579;-78
2021/12/12 06:44:04;;;;;;;6.60;5.03;;;6.10;99.90;;;;;;5123413;27;20752;-79
2021/12/12 06:46:30;;;;;;;6.72;6.03;;;6.10;99.90;;;;;;5122206;27;20797;-78
2021/12/12 06:48:58;;;;;;;7.53;6.78;;;6.10;99.90;;;;;;5122841;27;20378;-80
2021/12/12 06:51:25;;;;;;;5.93;5.13;;;6.10;99.90;;;;;;5122937;27;20050;-81
2021/12/12 06:53:51;;;;;;;6.85;5.47;;;6.90;99.90;;;;;;5142072;27;20038;-80
2021/12/12 06:56:18;;;;;;;7.10;5.63;;;6.10;99.90;;;;;;5141712;27;20099;-78
2021/12/12 06:58:46;;;;;;;7.20;6.43;;;6.10;99.90;;;;;;5141632;27;20074;-78
2021/12/12 07:01:19;;;;;;;6.88;5.85;;;6.20;99.90;;;;;;5141095;27;20107;-77
2021/12/12 07:03:46;;;;;;;6.93;6.22;;;6.20;99.90;;;;;;5141855;27;20383;-77
2021/12/12 07:06:15;;;;;;;6.88;5.20;;;6.20;99.90;;;;;;5123146;27;20038;-78
2021/12/12 07:08:41;;;;;;;6.05;5.15;;;6.20;99.90;;;;;;5122662;27;20163;-78
2021/12/12 07:11:07;;;;;;;6.63;4.63;;;6.20;99.90;;;;;;5139402;27;20149;-78
2021/12/12 07:13:33;;;;;;;6.47;5.60;;;6.30;99.90;;;;;;5137809;27;20038;-77
2021/12/12 07:16:01;;;;;;;5.93;4.55;;;6.30;99.90;;;;;;5136855;27;20202;-77
2021/12/12 07:18:30;;;;;;;7.63;5.53;;;6.30;99.90;;;;;;5137268;27;20050;-78
2021/12/12 07:21:00;;;;;;;8.93;5.90;;;6.30;99.90;;;;;;5115336;27;20059;-78
2021/12/12 07:23:27;;;;;;;6.28;4.95;;;6.30;99.90;;;;;;5139254;27;20060;-77
2021/12/12 07:25:53;;;;;;;5.15;4.53;;;6.40;99.90;;;;;;5138321;27;20050;-77
2021/12/12 07:28:19;;;;;;;5.68;5.18;;;6.40;99.90;;;;;;5138409;27;20145;-78
2021/12/12 07:30:45;;;;;;;7.22;5.00;;;6.40;99.90;;;;;;5139184;27;20054;-78
2021/12/12 07:33:12;;;;;;;4.82;4.32;;;6.40;99.90;;;;;;5138746;27;20043;-78
2021/12/12 07:35:42;;;;;;;6.60;5.32;;;6.40;99.90;;;;;;5119371;27;20065;-78
2021/12/12 07:38:10;;;;;;;5.20;4.70;;;6.40;99.90;;;;;;5138759;27;20102;-78
2021/12/12 07:40:37;;;;;;;6.60;4.82;;;6.50;99.90;;;;;;5120148;27;20145;-80
2021/12/12 07:43:05;;;;;;;5.32;4.65;;;6.50;99.90;;;;;;5137883;27;20046;-81
2021/12/12 07:45:32;;;;;;;5.22;4.55;;;6.50;99.90;;;;;;5139202;27;20043;-81
2021/12/12 07:47:57;;;;;;;7.70;4.70;;;6.50;99.90;;;;;;5119137;27;20720;-80
2021/12/12 07:50:25;;;;;;;5.55;4.80;;;6.50;99.90;;;;;;5136784;27;20042;-79
2021/12/12 07:52:52;;;;;;;5.97;4.75;;;6.60;99.90;;;;;;5138355;27;20054;-80
2021/12/12 07:55:18;;;;;;;6.32;5.35;;;6.60;99.90;;;;;;5137151;27;20057;-79
2021/12/12 07:57:44;;;;;;;7.78;5.38;;;6.60;99.90;;;;;;5137902;27;20046;-79
2021/12/12 08:00:17;;;;;;;6.95;5.25;;;6.60;99.90;;;;;;5138208;27;20042;-79
2021/12/12 08:02:43;;;;;;;5.70;5.05;;;6.70;99.90;;;;;;5138201;27;20102;-79
2021/12/12 08:05:13;;;;;;;6.18;5.18;;;6.70;99.90;;;;;;5119920;27;20054;-79
2021/12/12 08:07:40;;;;;;;6.47;4.93;;;6.70;99.90;;;;;;5138644;27;20057;-78
2021/12/12 08:10:12;;;;;;;6.70;5.53;;;6.70;99.90;;;;;;5137935;27;20557;-78
2021/12/12 08:12:38;;;;;;;6.78;4.95;;;6.70;99.90;;;;;;5138429;27;20042;-78
2021/12/12 08:15:07;;;;;;;7.70;6.28;;;6.80;99.90;;;;;;5117546;27;20081;-78
2021/12/12 08:17:33;;;;;;;6.05;5.45;;;6.80;99.90;;;;;;5136567;27;20050;-79
2021/12/12 08:19:59;;;;;;;7.63;5.95;;;6.80;99.90;;;;;;5137373;27;20107;-80
2021/12/12 08:22:27;;;;;;;7.63;6.03;;;6.80;99.90;;;;;;5120305;27;20043;-81
2021/12/12 08:24:55;;;;;;;6.60;5.18;;;6.80;99.90;;;;;;5117567;27;20043;-80
2021/12/12 08:27:21;;;;;;;7.03;5.55;;;6.80;99.90;;;;;;5136401;27;20051;-78
2021/12/12 08:29:47;;;;;;;6.05;5.40;;;6.90;99.90;;;;;;5135760;27;20042;-78
2021/12/12 08:32:14;;;;;;;7.78;5.63;;;6.90;99.90;;;;;;5116595;27;20090;-78
2021/12/12 08:34:40;;;;;;;7.88;5.80;;;6.90;99.90;;;;;;5117447;27;20055;-79
2021/12/12 08:37:06;;;;;;;8.02;5.78;;;6.90;99.90;;;;;;5117208;27;20050;-80
2021/12/12 08:39:33;;;;;;;7.40;5.75;;;6.90;99.90;;;;;;5136183;27;20088;-80
2021/12/12 08:42:00;;;;;;;8.10;5.95;;;7.00;99.90;;;;;;5136342;27;20695;-80
2021/12/12 08:44:28;;;;;;;6.65;5.57;;;7.00;99.90;;;;;;5137927;27;20049;-80
2021/12/12 08:46:56;;;;;;;6.50;5.55;;;7.00;99.90;;;;;;5119281;27;20504;-80
2021/12/12 08:49:25;;;;;;;8.07;6.30;;;7.10;99.90;;;;;;5136217;27;20077;-79
2021/12/12 08:51:55;;;;;;;6.30;5.57;;;7.10;99.90;;;;;;5118554;27;20391;-80
2021/12/12 08:54:26;;;;;;;10.48;6.78;;;7.10;99.90;;;;;;5135209;27;20047;-80
2021/12/12 08:57:02;;;;;;;6.85;5.82;;;7.10;99.90;;;;;;5116029;27;20046;-69
2021/12/12 08:59:30;;;;;;;10.60;7.07;;;7.10;99.90;;;;;;4772777;27;10000152;-73
2021/12/12 09:01:59;;;;;;;9.55;7.00;;;7.20;99.90;;;;;;5134983;27;20031;-79
2021/12/12 09:04:32;;;;;;;10.10;6.85;;;7.20;99.90;;;;;;5115616;27;20034;-79
2021/12/12 09:07:23;;;;;;;8.68;6.95;;;7.20;99.90;;;;;;5122519;27;20082;-74
2021/12/12 09:10:06;;;;;;;8.75;6.75;;;7.30;99.90;;;;;;4761200;27;10000585;-75
2021/12/12 09:12:56;;;;;;;9.20;6.65;;;7.30;99.90;;;;;;5115630;27;20566;-74
2021/12/12 09:15:28;;;;;;;9.13;7.30;;;7.30;99.90;;;;;;5115092;27;20047;-74
2021/12/12 09:18:00;;;;;;;7.80;6.67;;;7.40;99.90;;;;;;5117234;27;20088;-75
2021/12/12 09:20:34;;;;;;;11.63;7.57;;;7.40;99.90;;;;;;5116988;27;20043;-74
2021/12/12 09:23:08;;;;;;;13.20;7.47;;;7.40;99.90;;;;;;5112873;27;20043;-73
2021/12/12 09:25:49;;;;;;;10.57;8.20;;;7.50;99.90;;;;;;5116785;27;20518;-78
2021/12/12 09:28:49;;;;;;;11.85;7.10;;;7.50;99.90;;;;;;5113436;27;20718;-78
2021/12/12 09:31:32;;;;;;;10.40;7.25;;;7.50;99.90;;;;;;5115200;27;20099;-78
2021/12/12 09:34:09;;;;;;;11.65;8.60;;;7.60;99.90;;;;;;5116416;27;20107;-78
2021/12/12 09:36:37;;;;;;;10.50;8.00;;;7.10;99.90;;;;;;5118536;27;20038;-77
2021/12/12 09:39:26;;;;;;;9.73;8.50;;;7.40;99.90;;;;;;5119393;27;20849;-76
2021/12/12 09:42:29;;;;;;;11.60;8.88;;;7.70;99.90;;;;;;5117175;27;20224;-77
2021/12/12 09:45:07;;;;;;;13.30;10.13;;;7.70;99.90;;;;;;5116629;27;20051;-75
2021/12/12 09:51:15;;;;;;;11.95;8.50;;;7.80;99.90;;;;;;5115596;27;20501;-78
2021/12/12 09:54:18;;;;;;;16.63;11.52;;;7.80;99.90;;;;;;5077847;27;20051;-76
2021/12/12 09:56:51;;;;;;;13.93;9.60;;;7.90;99.90;;;;;;5115542;27;20039;-75
2021/12/12 09:59:40;;;;;;;18.67;12.30;;;8.00;99.90;;;;;;5115730;27;20100;-69
2021/12/12 10:02:43;;;;;;;18.90;11.95;;;8.00;99.90;;;;;;5117113;27;20053;-76
2021/12/12 10:05:18;;;;;;;19.08;11.70;;;8.00;99.90;;;;;;5114895;27;20880;-76
2021/12/12 10:08:12;;;;;;;20.27;11.75;;;8.10;99.90;;;;;;5115414;27;20039;-76
2021/12/12 10:10:51;;;;;;;20.75;12.93;;;8.10;99.90;;;;;;5113310;27;20588;-76
2021/12/12 10:13:44;;;;;;;18.23;12.65;;;8.20;99.90;;;;;;5113181;27;20147;-75
2021/12/12 10:16:22;;;;;;;19.73;13.90;;;8.20;99.90;;;;;;5114046;27;20094;-76
2021/12/12 10:18:48;;;;;;;18.42;12.10;;;8.20;99.90;;;;;;5114957;27;20046;-76
2021/12/12 10:21:20;;;;;;;21.70;12.38;;;8.30;99.90;;;;;;5116626;27;20116;-75
2021/12/12 10:24:18;;;;;;;19.73;12.55;;;8.30;99.90;;;;;;5112429;27;20271;-76
2021/12/12 10:26:48;;;;;;;17.98;11.52;;;8.30;99.90;;;;;;5099921;27;20180;-77
2021/12/12 10:29:21;;;;;;;20.13;12.73;;;8.40;99.90;;;;;;5111597;27;20039;-75
2021/12/12 10:31:56;;;;;;;17.15;11.00;;;8.50;99.90;;;;;;4761220;27;10000345;-75
2021/12/12 10:34:31;;;;;;;15.48;11.73;;;8.50;99.90;;;;;;5117041;27;20051;-75
2021/12/12 10:37:14;;;;;;;15.18;11.15;;;8.50;99.90;;;;;;5115240;27;20133;-74
2021/12/12 10:39:49;;;;;;;17.02;10.77;;;8.60;99.90;;;;;;5115127;27;20872;-76
2021/12/12 10:42:21;;;;;;;18.42;12.32;;;8.60;99.90;;;;;;5115087;27;20055;-76
2021/12/12 10:45:09;;;;;;;21.20;14.35;;;8.60;99.90;;;;;;5115563;27;20051;-75
2021/12/12 10:47:54;;;;;;;17.48;11.77;;;8.70;99.90;;;;;;5116318;27;20050;-74
2021/12/12 10:50:30;;;;;;;16.00;11.68;;;8.70;99.90;;;;;;5095778;28;20579;-69
2021/12/12 10:53:44;;;;;;;17.58;11.57;;;8.70;99.90;;;;;;5096026;28;20061;-69
2021/12/12 10:56:38;;;;;;;17.95;11.10;;;8.80;99.90;;;;;;5051900;28;20551;-70
2021/12/12 10:59:17;;;;;;;19.08;12.27;;;8.80;99.90;;;;;;5035250;28;20126;-68
2021/12/12 11:01:46;;;;;;;15.07;10.32;;;8.90;99.90;;;;;;5106781;27;20123;-69
2021/12/12 11:04:32;;;;;;;19.15;11.40;;;8.90;99.90;;;;;;5116129;27;20186;-70
2021/12/12 11:07:07;;;;;;;16.80;10.98;;;8.90;99.90;;;;;;5114233;27;20138;-74
2021/12/12 11:10:13;;;;;;;19.67;12.60;;;9.00;99.90;;;;;;5128086;27;20043;-74
2021/12/12 11:12:55;;;;;;;18.98;13.40;;;8.90;99.90;;;;;;5080389;27;20047;-74
2021/12/12 11:15:53;;;;;;;19.40;11.02;;;9.00;99.90;;;;;;5133253;27;20039;-74
2021/12/12 11:18:34;;;;;;;16.83;10.98;;;9.00;99.90;;;;;;5095530;27;21000;-74
2021/12/12 11:21:24;;;;;;;22.98;12.25;;;9.00;99.90;;;;;;5142245;27;20106;-74
2021/12/12 11:24:18;;;;;;;21.20;12.63;;;9.00;99.90;;;;;;5106977;27;20050;-73
2021/12/12 11:26:53;;;;;;;17.63;11.38;;;9.00;99.90;;;;;;5111371;27;20169;-74
2021/12/12 11:29:29;;;;;;;15.52;11.27;;;9.10;99.90;;;;;;5135967;27;20125;-73
2021/12/12 11:32:05;;;;;;;17.00;11.20;;;9.20;99.90;;;;;;5121896;27;20078;-73
2021/12/12 11:34:31;;;;;;;16.85;11.63;;;9.10;99.90;;;;;;5129150;27;20061;-73
2021/12/12 11:37:32;;;;;;;18.50;11.82;;;9.20;99.90;;;;;;5134637;27;20043;-72
2021/12/12 11:40:13;;;;;;;17.38;10.05;;;9.20;99.90;;;;;;5132862;27;20034;-73
2021/12/12 11:42:47;;;;;;;19.25;11.40;;;9.20;99.90;;;;;;5134776;27;20031;-73
2021/12/12 11:45:22;;;;;;;17.75;9.77;;;9.30;99.90;;;;;;5135524;27;20089;-74
2021/12/12 11:47:54;;;;;;;15.68;10.60;;;9.20;99.90;;;;;;5135335;27;20034;-74
2021/12/12 11:51:00;;;;;;;16.23;10.73;;;9.20;99.90;;;;;;5132736;27;20046;-73
2021/12/12 11:53:46;;;;;;;17.83;13.27;;;9.30;99.90;;;;;;5115374;27;20053;-74
2021/12/12 11:56:11;;;;;;;14.93;9.55;;;9.30;99.90;;;;;;5131728;27;20042;-74
2021/12/12 11:58:59;;;;;;;18.08;10.73;;;9.30;99.90;;;;;;5116840;27;20061;-74
2021/12/12 12:01:39;;;;;;;15.13;10.25;;;9.30;99.90;;;;;;5133888;27;20787;-74
2021/12/12 12:04:20;;;;;;;14.45;9.65;;;9.30;99.90;;;;;;5117834;27;20114;-74
2021/12/12 12:07:16;;;;;;;13.48;9.20;;;9.30;99.90;;;;;;5136373;27;20050;-75
2021/12/12 12:10:06;;;;;;;14.07;9.60;;;9.30;99.90;;;;;;5136190;27;20131;-76
2021/12/12 12:12:59;;;;;;;12.15;8.70;;;9.30;99.90;;;;;;5118409;27;20047;-76
2021/12/12 12:15:53;;;;;;;15.80;9.88;;;9.40;99.90;;;;;;5137503;27;20068;-77
2021/12/12 12:18:34;;;;;;;;;;;9.50;99.90;;;;;;5116398;27;20862;-77
2021/12/12 12:21:27;;;;;;;16.10;9.55;;;9.50;99.90;;;;;;5110807;27;19922;-77
2021/12/12 12:24:26;;;;;;;15.02;10.25;;;9.50;99.90;;;;;;5123285;27;20762;-77
2021/12/12 12:27:04;;;;;;;14.20;9.20;;;9.60;99.90;;;;;;5136777;27;20043;-76
2021/12/12 12:29:33;;;;;;;13.00;9.32;;;9.60;99.90;;;;;;5118014;27;20065;-76
2021/12/12 12:32:04;;;;;;;14.50;9.25;;;9.70;99.90;;;;;;5117202;27;20054;-78
2021/12/12 12:34:49;;;;;;;12.73;8.98;;;9.70;99.90;;;;;;5117189;27;20047;-78
2021/12/12 12:37:51;;;;;;;15.02;8.95;;;9.70;99.90;;;;;;5135021;27;20039;-77
2021/12/12 12:40:54;;;;;;;17.80;10.57;;;9.80;99.90;;;;;;5135622;27;20050;-77
2021/12/12 12:43:23;;;;;;;12.68;9.57;;;9.80;99.90;;;;;;5136061;27;20075;-78
2021/12/12 12:46:01;;;;;;;15.23;9.52;;;9.90;99.90;;;;;;5135157;27;20050;-78
2021/12/12 12:48:45;;;;;;;14.73;10.07;;;9.80;99.90;;;;;;5122668;27;20073;-78
2021/12/12 12:51:27;;;;;;;10.25;9.25;;;9.80;99.90;;;;;;5157104;27;20049;-79
2021/12/12 12:54:26;;;;;;;12.45;7.57;;;9.90;99.90;;;;;;5152972;27;20042;-79
2021/12/12 12:57:19;;;;;;;9.50;7.43;;;9.90;99.90;;;;;;5115849;27;20050;-74
2021/12/12 12:59:50;;;;;;;10.40;7.93;;;9.80;99.90;;;;;;5116439;27;20714;-79
2021/12/12 13:02:20;;;;;;;13.05;7.97;;;9.80;99.90;;;;;;5135945;27;20085;-78
2021/12/12 13:05:07;;;;;;;13.57;8.93;;;9.90;99.90;;;;;;5135201;27;20060;-80
2021/12/12 13:08:17;;;;;;;10.73;7.40;;;9.80;99.90;;;;;;5122947;27;20047;-80
2021/12/12 13:10:45;;;;;;;10.70;7.78;;;9.90;99.90;;;;;;5096335;27;20062;-79
2021/12/12 13:13:28;;;;;;;10.15;7.22;;;9.90;99.90;;;;;;5135628;27;20043;-79
2021/12/12 13:16:09;;;;;;;13.23;7.57;;;9.90;99.90;;;;;;5118742;27;20055;-79
2021/12/12 13:18:57;;;;;;;9.13;7.07;;;9.90;99.90;;;;;;5137156;27;20705;-79
2021/12/12 13:21:25;;;;;;;10.68;7.13;;;10.00;99.90;;;;;;5127024;27;20576;-80
2021/12/12 13:24:06;;;;;;;9.68;7.88;;;10.00;99.90;;;;;;5123901;27;20699;-78
2021/12/12 13:27:13;;;;;;;12.82;9.25;;;10.00;99.90;;;;;;5117917;27;20060;-78
2021/12/12 13:30:04;;;;;;;12.95;9.13;;;10.00;99.90;;;;;;5137306;27;20054;-78
2021/12/12 13:32:50;;;;;;;9.55;8.25;;;10.00;99.90;;;;;;5117351;27;20067;-79
2021/12/12 13:35:45;;;;;;;9.70;7.50;;;10.00;99.90;;;;;;5117092;27;20050;-79
2021/12/12 13:38:38;;;;;;;16.05;9.18;;;10.00;99.90;;;;;;5122734;27;20055;-80